createdAt,value
2023-05-10T00:01:15.049Z,15.35
2023-05-10T00:04:20.621Z,17.63
2023-05-10T00:07:26.759Z,15.25
2023-05-10T00:10:34.966Z,14.00
2023-05-10T00:13:40.317Z,18.58
2023-05-10T00:16:45.952Z,17.33
2023-05-10T00:19:51.342Z,17.60
2023-05-10T00:22:56.914Z,13.95
2023-05-10T00:26:04.876Z,16.33
2023-05-10T00:29:10.345Z,21.73
2023-05-10T00:32:15.946Z,16.52
2023-05-10T00:35:22.956Z,19.77
2023-05-10T00:38:28.282Z,15.60
2023-05-10T00:41:36.492Z,15.48
2023-05-10T00:44:43.822Z,17.55
2023-05-10T00:47:50.598Z,21.73
2023-05-10T00:50:56.223Z,14.27
2023-05-10T00:54:02.779Z,19.25
2023-05-10T00:57:10.769Z,16.75
2023-05-10T01:00:19.625Z,15.35
2023-05-10T01:03:25.372Z,15.38
2023-05-10T01:06:30.683Z,20.90
2023-05-10T01:09:36.453Z,16.45
2023-05-10T01:12:45.127Z,17.00
2023-05-10T01:15:51.257Z,18.05
2023-05-10T01:18:57.069Z,17.23
2023-05-10T01:22:07.944Z,23.85
2023-05-10T01:25:19.692Z,15.75
2023-05-10T01:28:41.818Z,21.90
2023-05-10T01:32:06.788Z,18.88
2023-05-10T01:35:14.860Z,18.63
2023-05-10T01:38:21.642Z,14.15
2023-05-10T01:41:29.489Z,12.95
2023-05-10T01:44:38.961Z,15.13
2023-05-10T01:47:49.022Z,18.27
2023-05-10T01:50:55.266Z,11.52
2023-05-10T01:54:03.131Z,15.98
2023-05-10T01:57:11.319Z,15.10
2023-05-10T02:00:17.800Z,25.38
2023-05-10T02:03:27.554Z,14.32
2023-05-10T02:06:33.941Z,14.60
2023-05-10T02:09:40.414Z,13.38
2023-05-10T02:12:46.532Z,17.70
2023-05-10T02:15:52.981Z,16.02
2023-05-10T02:19:02.525Z,15.73
2023-05-10T02:22:08.123Z,16.02
2023-05-10T02:25:15.261Z,16.77
2023-05-10T02:28:21.571Z,13.55
2023-05-10T02:31:27.378Z,13.85
2023-05-10T02:34:36.282Z,15.23
2023-05-10T02:37:42.704Z,13.20
2023-05-10T02:40:48.932Z,17.45
2023-05-10T02:43:54.980Z,15.52
2023-05-10T02:47:01.308Z,18.17
2023-05-10T02:50:11.838Z,17.23
2023-05-10T02:53:20.456Z,13.00
2023-05-10T02:56:29.404Z,18.00
2023-05-10T02:59:35.466Z,13.82
2023-05-10T03:02:40.962Z,19.23
2023-05-10T03:05:49.215Z,14.68
2023-05-10T03:08:54.588Z,17.38
2023-05-10T03:12:05.142Z,15.77
2023-05-10T03:15:15.660Z,15.68
2023-05-10T03:18:23.874Z,14.48
2023-05-10T03:21:33.904Z,16.13
2023-05-10T03:24:39.553Z,20.02
2023-05-10T03:27:47.121Z,20.08
2023-05-10T03:30:53.630Z,17.63
2023-05-10T03:33:59.870Z,18.75
2023-05-10T03:37:08.915Z,21.88
2023-05-10T03:40:14.926Z,18.63
2023-05-10T03:43:21.975Z,16.10
2023-05-10T03:46:27.997Z,21.73
2023-05-10T03:49:33.744Z,17.45
2023-05-10T03:52:42.651Z,18.30
2023-05-10T03:55:48.108Z,19.23
2023-05-10T03:58:53.579Z,15.15
2023-05-10T04:01:59.043Z,16.55
2023-05-10T04:05:04.639Z,18.98
2023-05-10T04:08:12.635Z,19.00
2023-05-10T04:11:18.337Z,17.10
2023-05-10T04:14:23.638Z,19.30
2023-05-10T04:17:29.153Z,19.17
2023-05-10T04:20:36.280Z,16.58
2023-05-10T04:23:44.789Z,20.60
2023-05-10T04:29:55.056Z,19.40
2023-05-10T04:33:00.841Z,18.60
2023-05-10T04:36:07.264Z,21.85
2023-05-10T04:39:15.334Z,22.73
2023-05-10T04:42:20.953Z,18.10
2023-05-10T04:45:26.432Z,16.10
2023-05-10T04:48:32.035Z,18.67
2023-05-10T04:51:37.493Z,20.15
2023-05-10T04:54:45.722Z,18.90
2023-05-10T04:57:50.957Z,16.85
2023-05-10T05:00:56.373Z,15.32
2023-05-10T05:04:01.648Z,16.02
2023-05-10T05:07:07.257Z,16.02
2023-05-10T05:10:15.578Z,17.45
2023-05-10T05:13:21.154Z,14.75
2023-05-10T05:16:26.838Z,14.00
2023-05-10T05:19:32.504Z,12.98
2023-05-10T05:22:37.736Z,14.00
2023-05-10T05:25:45.865Z,12.90
2023-05-10T05:28:53.918Z,12.25
2023-05-10T05:31:59.676Z,15.80
2023-05-10T05:35:05.169Z,15.02
2023-05-10T05:38:10.914Z,14.48
2023-05-10T05:41:18.886Z,15.18
2023-05-10T05:44:24.360Z,16.15
2023-05-10T05:47:30.394Z,11.35
2023-05-10T05:50:35.873Z,13.32
2023-05-10T05:53:41.357Z,12.95
2023-05-10T05:56:49.442Z,16.80
2023-05-10T05:59:55.275Z,20.52
2023-05-10T06:03:00.806Z,20.30
2023-05-10T06:06:06.540Z,17.42
2023-05-10T06:09:11.935Z,14.88
2023-05-10T06:12:19.921Z,17.15
2023-05-10T06:15:25.198Z,23.98
2023-05-10T06:18:30.787Z,19.00
2023-05-10T06:21:36.041Z,23.15
2023-05-10T06:24:41.660Z,17.50
2023-05-10T06:27:52.913Z,15.85
2023-05-10T06:30:59.615Z,12.75
2023-05-10T06:34:04.798Z,16.52
2023-05-10T06:37:10.323Z,11.23
2023-05-10T06:40:15.755Z,10.48
2023-05-10T06:43:24.028Z,12.55
2023-05-10T06:46:29.349Z,11.10
2023-05-10T06:49:34.969Z,13.55
2023-05-10T06:52:40.436Z,14.40
2023-05-10T06:55:46.190Z,12.90
2023-05-10T06:58:54.402Z,14.70
2023-05-10T07:01:59.914Z,15.65
2023-05-10T07:05:05.232Z,10.75
2023-05-10T07:08:10.906Z,10.77
2023-05-10T07:11:16.174Z,14.35
2023-05-10T07:14:24.167Z,8.50
2023-05-10T07:17:29.738Z,10.77
2023-05-10T07:20:35.157Z,8.07
2023-05-10T07:23:41.658Z,17.88
2023-05-10T07:26:48.411Z,11.30
2023-05-10T07:29:56.316Z,9.70
2023-05-10T07:33:02.278Z,8.60
2023-05-10T07:36:07.853Z,9.45
2023-05-10T07:39:18.662Z,12.13
2023-05-10T07:45:38.973Z,7.68
2023-05-10T07:48:44.758Z,6.22
2023-05-10T07:51:50.482Z,8.10
2023-05-10T07:54:56.001Z,10.27
2023-05-10T07:58:02.366Z,11.90
2023-05-10T08:01:10.600Z,6.20
2023-05-10T08:07:21.724Z,7.95
2023-05-10T08:10:28.400Z,7.05
2023-05-10T08:13:34.021Z,11.60
2023-05-10T08:16:41.703Z,5.80
2023-05-10T08:19:47.184Z,4.53
2023-05-10T08:22:52.727Z,5.78
2023-05-10T08:25:58.510Z,6.53
2023-05-10T08:29:03.749Z,4.90
2023-05-10T08:32:11.974Z,6.55
2023-05-10T08:35:17.618Z,8.52
2023-05-10T08:38:23.175Z,11.88
2023-05-10T08:41:28.810Z,6.30
2023-05-10T08:44:35.298Z,8.02
2023-05-10T08:47:43.437Z,7.40
2023-05-10T08:50:49.301Z,7.07
2023-05-10T08:53:54.968Z,6.35
2023-05-10T08:57:00.261Z,4.07
2023-05-10T09:00:05.884Z,5.93
2023-05-10T09:03:15.610Z,8.90
2023-05-10T09:06:21.211Z,6.20
2023-05-10T09:09:28.009Z,6.53
2023-05-10T09:12:33.547Z,4.25
2023-05-10T09:15:39.114Z,4.72
2023-05-10T09:18:46.865Z,3.67
2023-05-10T09:21:53.081Z,4.40
2023-05-10T09:25:08.032Z,4.63
2023-05-10T09:28:14.282Z,6.35
2023-05-10T09:31:19.596Z,3.17
2023-05-10T09:34:33.574Z,3.55
2023-05-10T09:37:38.821Z,9.23
2023-05-10T09:40:44.156Z,4.82
2023-05-10T09:43:49.670Z,8.88
2023-05-10T09:46:55.921Z,4.50
2023-05-10T09:50:06.355Z,5.82
2023-05-10T09:53:12.572Z,9.07
2023-05-10T09:56:17.906Z,4.03
2023-05-10T09:59:23.691Z,4.68
2023-05-10T10:02:33.243Z,4.18
2023-05-10T10:05:44.890Z,6.45
2023-05-10T10:08:50.350Z,5.72
2023-05-10T10:11:56.001Z,5.20
2023-05-10T10:15:03.097Z,4.15
2023-05-10T10:18:12.072Z,4.80
2023-05-10T10:21:21.049Z,5.43
2023-05-10T10:24:26.653Z,4.10
2023-05-10T10:27:38.009Z,5.88
2023-05-10T10:30:45.823Z,8.30
2023-05-10T10:34:00.075Z,5.55
2023-05-10T10:37:11.096Z,5.15
2023-05-10T10:40:34.635Z,4.78
2023-05-10T10:43:40.508Z,13.25
2023-05-10T10:47:01.253Z,5.35
2023-05-10T10:50:07.985Z,6.00
2023-05-10T10:53:17.659Z,9.30
2023-05-10T10:56:26.067Z,4.35
2023-05-10T10:59:31.686Z,4.47
2023-05-10T11:02:37.595Z,5.03
2023-05-10T11:05:44.444Z,2.88
2023-05-10T11:08:53.992Z,5.05
2023-05-10T11:11:59.870Z,6.07
2023-05-10T11:15:05.465Z,4.47
2023-05-10T11:18:31.880Z,3.80
2023-05-10T11:21:37.763Z,6.50
2023-05-10T11:25:00.731Z,5.43
2023-05-10T11:28:06.783Z,6.50
2023-05-10T11:31:14.125Z,3.70
2023-05-10T11:34:27.548Z,4.57
2023-05-10T11:37:35.631Z,3.92
2023-05-10T11:40:45.845Z,2.50
2023-05-10T11:43:51.972Z,4.30
2023-05-10T11:46:57.737Z,4.13
2023-05-10T11:50:04.146Z,5.15
2023-05-10T11:53:10.390Z,2.83
2023-05-10T11:56:18.421Z,3.25
2023-05-10T11:59:23.645Z,3.08
2023-05-10T12:02:29.436Z,7.40
2023-05-10T12:05:36.316Z,2.45
2023-05-10T12:08:48.461Z,7.20
2023-05-10T12:11:59.436Z,5.20
2023-05-10T12:15:06.216Z,4.13
2023-05-10T12:18:12.830Z,4.72
2023-05-10T12:21:19.371Z,6.82
2023-05-10T12:24:26.069Z,8.23
2023-05-10T12:27:41.675Z,2.80
2023-05-10T12:30:48.044Z,3.67
2023-05-10T12:33:53.686Z,3.22
2023-05-10T12:37:02.415Z,9.65
2023-05-10T12:40:09.334Z,5.47
2023-05-10T12:43:17.422Z,3.50
2023-05-10T12:46:22.876Z,3.00
2023-05-10T12:49:29.022Z,9.15
2023-05-10T12:52:35.633Z,2.75
2023-05-10T12:55:41.096Z,6.43
2023-05-10T12:58:49.500Z,4.07
2023-05-10T13:04:59.823Z,6.32
2023-05-10T13:08:05.331Z,3.00
2023-05-10T13:11:11.654Z,4.10
2023-05-10T13:14:21.644Z,3.88
2023-05-10T13:17:27.080Z,7.18
2023-05-10T13:20:32.468Z,5.25
2023-05-10T13:23:37.717Z,6.57
2023-05-10T13:26:43.015Z,4.97
2023-05-10T13:29:51.596Z,4.65
2023-05-10T13:32:57.503Z,8.35
2023-05-10T13:36:03.219Z,4.55
2023-05-10T13:39:08.833Z,6.13
2023-05-10T13:42:14.196Z,8.52
2023-05-10T13:45:22.432Z,4.13
2023-05-10T13:48:28.516Z,4.30
2023-05-10T13:51:33.986Z,4.18
2023-05-10T13:54:39.902Z,3.15
2023-05-10T13:57:45.282Z,3.30
2023-05-10T14:00:53.355Z,2.90
2023-05-10T14:03:58.582Z,2.78
2023-05-10T14:07:04.307Z,3.70
2023-05-10T14:10:10.024Z,3.22
2023-05-10T14:13:15.617Z,2.55
2023-05-10T14:16:23.886Z,6.38
2023-05-10T14:19:29.437Z,3.90
2023-05-10T14:22:34.852Z,3.50
2023-05-10T14:25:40.331Z,6.53
2023-05-10T14:28:46.145Z,4.03
2023-05-10T14:31:54.338Z,6.00
2023-05-10T14:38:05.904Z,8.98
2023-05-10T14:41:15.363Z,3.92
2023-05-10T14:44:21.056Z,3.78
2023-05-10T14:47:28.883Z,5.30
2023-05-10T14:50:36.698Z,9.20
2023-05-10T14:53:42.820Z,7.10
2023-05-10T14:56:50.336Z,3.78
2023-05-10T14:59:55.700Z,4.47
2023-05-10T15:03:04.966Z,4.40
2023-05-10T15:06:12.170Z,5.82
2023-05-10T15:09:17.907Z,5.97
2023-05-10T15:12:23.291Z,8.05
2023-05-10T15:15:28.913Z,8.85
2023-05-10T15:18:37.068Z,5.63
2023-05-10T15:21:45.475Z,8.40
2023-05-10T15:24:50.902Z,8.32
2023-05-10T15:27:56.284Z,6.07
2023-05-10T15:31:01.734Z,10.70
2023-05-10T15:34:09.991Z,4.78
2023-05-10T15:40:20.820Z,5.38
2023-05-10T15:43:26.558Z,4.80
2023-05-10T15:46:31.901Z,8.93
2023-05-10T15:49:40.022Z,6.85
2023-05-10T15:52:45.599Z,8.52
2023-05-10T15:55:50.811Z,6.95
2023-05-10T15:58:56.329Z,8.45
2023-05-10T16:02:04.623Z,5.05
2023-05-10T16:05:14.269Z,3.63
2023-05-10T16:08:19.720Z,5.30
2023-05-10T16:11:25.050Z,9.52
2023-05-10T16:14:31.033Z,11.98
2023-05-10T16:17:36.420Z,10.38
2023-05-10T16:20:44.569Z,4.57
2023-05-10T16:23:50.117Z,9.40
2023-05-10T16:26:55.800Z,14.52
2023-05-10T16:30:02.245Z,8.82
2023-05-10T16:33:10.898Z,8.15
2023-05-10T16:36:19.000Z,8.15
2023-05-10T16:39:24.719Z,9.00
2023-05-10T16:42:31.115Z,9.50
2023-05-10T16:45:36.828Z,10.38
2023-05-10T16:48:44.961Z,8.52
2023-05-10T16:51:52.858Z,8.85
2023-05-10T16:54:58.213Z,14.18
2023-05-10T16:58:03.843Z,7.32
2023-05-10T17:01:09.927Z,8.70
2023-05-10T17:04:15.679Z,8.05
2023-05-10T17:07:25.558Z,13.43
2023-05-10T17:10:31.367Z,7.32
2023-05-10T17:13:36.600Z,14.35
2023-05-10T17:16:43.625Z,18.35
2023-05-10T17:19:49.338Z,10.52
2023-05-10T17:22:57.330Z,9.68
2023-05-10T17:26:03.125Z,12.73
2023-05-10T17:29:08.752Z,13.60
2023-05-10T17:32:14.162Z,17.13
2023-05-10T17:35:19.700Z,15.98
2023-05-10T17:38:28.164Z,9.60
2023-05-10T17:41:33.906Z,17.58
2023-05-10T17:44:39.521Z,8.32
2023-05-10T17:47:44.993Z,16.08
2023-05-10T17:50:52.416Z,19.27
2023-05-10T17:54:00.689Z,14.50
2023-05-10T18:00:12.059Z,18.70
2023-05-10T18:03:17.429Z,9.25
2023-05-10T18:06:23.086Z,10.63
2023-05-10T18:09:31.344Z,13.55
2023-05-10T18:12:37.082Z,7.57
2023-05-10T18:15:42.338Z,12.45
2023-05-10T18:18:47.919Z,24.27
2023-05-10T18:21:53.588Z,23.85
2023-05-10T18:25:01.976Z,15.65
2023-05-10T18:28:09.959Z,12.98
2023-05-10T18:31:15.814Z,12.68
2023-05-10T18:34:21.522Z,18.42
2023-05-10T18:37:27.564Z,24.45
2023-05-10T18:40:35.472Z,14.80
2023-05-10T18:43:42.789Z,13.05
2023-05-10T18:46:48.304Z,14.75
2023-05-10T18:49:53.581Z,21.23
2023-05-10T18:52:59.290Z,17.92
2023-05-10T18:56:07.821Z,17.85
2023-05-10T18:59:13.251Z,12.98
2023-05-10T19:02:19.026Z,25.50
2023-05-10T19:05:30.498Z,22.50
2023-05-10T19:08:35.763Z,14.43
2023-05-10T19:11:43.866Z,15.98
2023-05-10T19:14:49.382Z,11.40
2023-05-10T19:17:57.568Z,10.18
2023-05-10T19:21:05.067Z,13.93
2023-05-10T19:24:12.716Z,19.30
2023-05-10T19:27:20.828Z,13.17
2023-05-10T19:30:26.268Z,10.70
2023-05-10T19:33:31.962Z,16.80
2023-05-10T19:36:37.448Z,10.07
2023-05-10T19:39:43.845Z,12.48
2023-05-10T19:42:52.931Z,13.13
2023-05-10T19:46:01.338Z,8.68
2023-05-10T19:49:06.653Z,12.93
2023-05-10T19:52:12.814Z,15.68
2023-05-10T19:55:18.981Z,14.40
2023-05-10T19:58:29.006Z,10.70
2023-05-10T20:01:34.937Z,14.57
2023-05-10T20:04:40.513Z,17.08
2023-05-10T20:07:45.690Z,17.77
2023-05-10T20:10:51.325Z,16.00
2023-05-10T20:13:59.507Z,15.02
2023-05-10T20:17:04.932Z,8.77
2023-05-10T20:20:10.951Z,11.93
2023-05-10T20:23:16.651Z,11.80
2023-05-10T20:26:22.041Z,19.90
2023-05-10T20:29:30.089Z,16.27
2023-05-10T20:32:35.515Z,14.98
2023-05-10T20:35:41.061Z,20.92
2023-05-10T20:38:46.418Z,16.23
2023-05-10T20:41:52.879Z,13.82
2023-05-10T20:45:00.933Z,18.25
2023-05-10T20:48:11.070Z,18.00
2023-05-10T20:51:16.456Z,13.10
2023-05-10T20:54:22.336Z,20.17
2023-05-10T20:57:27.803Z,15.57
2023-05-10T21:00:35.805Z,17.10
2023-05-10T21:03:41.282Z,16.80
2023-05-10T21:06:46.895Z,17.63
2023-05-10T21:09:52.260Z,17.08
2023-05-10T21:12:57.507Z,19.55
2023-05-10T21:16:05.505Z,20.27
2023-05-10T21:19:10.803Z,18.50
2023-05-10T21:22:16.085Z,19.85
2023-05-10T21:25:21.406Z,16.33
2023-05-10T21:28:26.929Z,16.80
2023-05-10T21:31:35.060Z,14.85
2023-05-10T21:34:40.865Z,16.05
2023-05-10T21:37:46.370Z,16.20
2023-05-10T21:40:52.271Z,12.48
2023-05-10T21:43:57.860Z,18.00
2023-05-10T21:47:06.236Z,9.98
2023-05-10T21:50:12.445Z,12.65
2023-05-10T21:53:18.034Z,13.38
2023-05-10T21:56:23.835Z,20.25
2023-05-10T21:59:29.243Z,11.75
2023-05-10T22:02:37.630Z,14.45
2023-05-10T22:05:42.976Z,9.77
2023-05-10T22:08:48.403Z,15.73
2023-05-10T22:11:53.845Z,13.05
2023-05-10T22:15:09.333Z,9.77
2023-05-10T22:18:18.135Z,20.23
2023-05-10T22:21:23.762Z,11.18
2023-05-10T22:24:29.146Z,13.68
2023-05-10T22:27:34.706Z,13.82
2023-05-10T22:30:40.436Z,15.30
2023-05-10T22:33:48.267Z,17.98
2023-05-10T22:36:54.095Z,14.88
2023-05-10T22:39:59.784Z,11.45
2023-05-10T22:43:05.337Z,11.52
2023-05-10T22:46:10.695Z,13.60
2023-05-10T22:49:18.850Z,15.75
2023-05-10T22:52:24.687Z,10.63
2023-05-10T22:55:30.107Z,16.00
2023-05-10T22:58:35.639Z,16.30
2023-05-10T23:01:41.185Z,16.48
2023-05-10T23:04:49.801Z,16.70
2023-05-10T23:11:00.929Z,11.00
2023-05-10T23:14:06.355Z,15.45
2023-05-10T23:17:12.031Z,15.02
2023-05-10T23:20:20.377Z,21.30
2023-05-10T23:23:26.230Z,15.27
2023-05-10T23:26:31.641Z,18.35
2023-05-10T23:29:36.980Z,13.45
2023-05-10T23:32:42.397Z,15.85
2023-05-10T23:35:50.552Z,17.17
2023-05-10T23:38:56.225Z,10.73
2023-05-10T23:42:02.091Z,22.00
2023-05-10T23:45:08.363Z,18.63
2023-05-10T23:48:13.990Z,18.80
2023-05-10T23:51:21.902Z,24.08
2023-05-10T23:54:27.380Z,17.08
2023-05-10T23:57:32.807Z,19.60
